sensor_id;sensor_type;location;lat;lon;timestamp;pressure;altitude;pressure_sealevel;temperature;humidity
20015;BME280;61787;42.022;23.078;2022-12-29T00:00:06;97748.53;;;6.89;95.46
20015;BME280;61787;42.022;23.078;2022-12-29T00:01:08;97752.25;;;6.88;95.46
20015;BME280;61787;42.022;23.078;2022-12-29T00:02:10;97753.28;;;6.92;95.03
20015;BME280;61787;42.022;23.078;2022-12-29T00:03:12;97754.59;;;6.95;95.43
20015;BME280;61787;42.022;23.078;2022-12-29T00:04:14;97748.97;;;6.96;94.98
20015;BME280;61787;42.022;23.078;2022-12-29T00:05:16;97747.84;;;7.02;95.46
20015;BME280;61787;42.022;23.078;2022-12-29T00:06:18;97746.25;;;7.01;95.02
20015;BME280;61787;42.022;23.078;2022-12-29T00:07:19;97750.06;;;6.95;94.47
20015;BME280;61787;42.022;23.078;2022-12-29T00:08:21;97749.53;;;6.93;94.97
20015;BME280;61787;42.022;23.078;2022-12-29T00:09:41;97748.59;;;6.84;95.72
20015;BME280;61787;42.022;23.078;2022-12-29T00:10:42;97752.03;;;6.84;96.47
20015;BME280;61787;42.022;23.078;2022-12-29T00:11:44;97759.41;;;6.93;96.26
20015;BME280;61787;42.022;23.078;2022-12-29T00:12:45;97756.13;;;7.01;95.87
20015;BME280;61787;42.022;23.078;2022-12-29T00:14:06;97760.06;;;7.03;95.49
20015;BME280;61787;42.022;23.078;2022-12-29T00:15:26;97753.50;;;6.96;95.63
20015;BME280;61787;42.022;23.078;2022-12-29T00:16:42;97758.97;;;6.85;96.56
20015;BME280;61787;42.022;23.078;2022-12-29T00:17:44;97755.56;;;6.80;96.63
20015;BME280;61787;42.022;23.078;2022-12-29T00:18:46;97757.22;;;6.76;96.91
20015;BME280;61787;42.022;23.078;2022-12-29T00:19:48;97753.28;;;6.68;97.32
20015;BME280;61787;42.022;23.078;2022-12-29T00:21:16;97752.63;;;6.58;98.59
20015;BME280;61787;42.022;23.078;2022-12-29T00:22:37;97751.28;;;6.60;98.49
20015;BME280;61787;42.022;23.078;2022-12-29T00:23:57;97756.59;;;6.60;98.14
20015;BME280;61787;42.022;23.078;2022-12-29T00:25:17;97755.81;;;6.60;98.75
20015;BME280;61787;42.022;23.078;2022-12-29T00:26:37;97754.22;;;6.59;98.28
20015;BME280;61787;42.022;23.078;2022-12-29T00:27:57;97754.72;;;6.61;99.09
20015;BME280;61787;42.022;23.078;2022-12-29T00:29:18;97751.81;;;6.57;98.87
20015;BME280;61787;42.022;23.078;2022-12-29T00:30:38;97751.03;;;6.57;99.21
20015;BME280;61787;42.022;23.078;2022-12-29T00:31:58;97745.75;;;6.52;99.02
20015;BME280;61787;42.022;23.078;2022-12-29T00:33:20;97750.53;;;6.55;99.88
20015;BME280;61787;42.022;23.078;2022-12-29T00:34:41;97748.66;;;6.55;99.46
20015;BME280;61787;42.022;23.078;2022-12-29T00:36:30;97752.41;;;6.54;99.59
20015;BME280;61787;42.022;23.078;2022-12-29T00:37:28;97750.00;;;6.53;99.91
20015;BME280;61787;42.022;23.078;2022-12-29T00:38:51;97746.84;;;6.51;99.62
20015;BME280;61787;42.022;23.078;2022-12-29T00:40:13;97747.97;;;6.45;99.39
20015;BME280;61787;42.022;23.078;2022-12-29T00:41:34;97757.25;;;6.47;100.00
20015;BME280;61787;42.022;23.078;2022-12-29T00:42:54;97754.03;;;6.50;99.68
20015;BME280;61787;42.022;23.078;2022-12-29T00:44:14;97757.25;;;6.47;99.97
20015;BME280;61787;42.022;23.078;2022-12-29T00:45:16;97750.06;;;6.48;99.78
20015;BME280;61787;42.022;23.078;2022-12-29T00:46:18;97750.63;;;6.45;100.00
20015;BME280;61787;42.022;23.078;2022-12-29T00:47:20;97749.56;;;6.46;100.00
20015;BME280;61787;42.022;23.078;2022-12-29T00:48:22;97746.97;;;6.40;100.00
20015;BME280;61787;42.022;23.078;2022-12-29T00:49:42;97755.97;;;6.45;100.00
20015;BME280;61787;42.022;23.078;2022-12-29T00:50:44;97753.31;;;6.45;100.00
20015;BME280;61787;42.022;23.078;2022-12-29T00:51:45;97750.38;;;6.46;100.00
20015;BME280;61787;42.022;23.078;2022-12-29T00:52:47;97746.31;;;6.49;100.00
20015;BME280;61787;42.022;23.078;2022-12-29T00:53:49;97746.38;;;6.43;100.00
20015;BME280;61787;42.022;23.078;2022-12-29T00:54:50;97747.44;;;6.42;100.00
20015;BME280;61787;42.022;23.078;2022-12-29T00:55:52;97744.78;;;6.42;100.00
20015;BME280;61787;42.022;23.078;2022-12-29T00:56:53;97746.38;;;6.43;100.00
20015;BME280;61787;42.022;23.078;2022-12-29T00:57:55;97746.06;;;6.50;100.00
20015;BME280;61787;42.022;23.078;2022-12-29T00:59:00;97739.34;;;6.53;100.00
20015;BME280;61787;42.022;23.078;2022-12-29T01:00:03;97737.31;;;6.45;100.00
20015;BME280;61787;42.022;23.078;2022-12-29T01:01:06;97737.59;;;6.43;100.00
20015;BME280;61787;42.022;23.078;2022-12-29T01:02:09;97735.16;;;6.47;100.00
20015;BME280;61787;42.022;23.078;2022-12-29T01:03:11;97732.44;;;6.52;99.77
20015;BME280;61787;42.022;23.078;2022-12-29T01:04:14;97736.63;;;6.58;99.57
20015;BME280;61787;42.022;23.078;2022-12-29T01:05:15;97736.06;;;6.61;99.62
20015;BME280;61787;42.022;23.078;2022-12-29T01:06:18;97740.28;;;6.67;98.99
20015;BME280;61787;42.022;23.078;2022-12-29T01:07:20;97738.31;;;6.72;98.80
20015;BME280;61787;42.022;23.078;2022-12-29T01:08:22;97733.09;;;6.86;98.03
20015;BME280;61787;42.022;23.078;2022-12-29T01:09:23;97736.25;;;6.88;97.12
20015;BME280;61787;42.022;23.078;2022-12-29T01:10:43;97730.94;;;6.88;97.17
20015;BME280;61787;42.022;23.078;2022-12-29T01:11:45;97739.44;;;6.90;96.91
20015;BME280;61787;42.022;23.078;2022-12-29T01:12:46;97730.38;;;6.91;96.72
20015;BME280;61787;42.022;23.078;2022-12-29T01:13:48;97738.31;;;6.96;97.21
20015;BME280;61787;42.022;23.078;2022-12-29T01:14:50;97728.66;;;7.00;97.26
20015;BME280;61787;42.022;23.078;2022-12-29T01:15:52;97737.38;;;7.06;96.28
20015;BME280;61787;42.022;23.078;2022-12-29T01:16:54;97730.66;;;7.08;95.97
20015;BME280;61787;42.022;23.078;2022-12-29T01:17:56;97730.66;;;7.08;95.44
20015;BME280;61787;42.022;23.078;2022-12-29T01:18:59;97730.66;;;7.08;95.35
20015;BME280;61787;42.022;23.078;2022-12-29T01:20:01;97724.31;;;7.04;95.21
20015;BME280;61787;42.022;23.078;2022-12-29T01:21:05;97719.06;;;6.99;95.23
20015;BME280;61787;42.022;23.078;2022-12-29T01:22:07;97729.78;;;6.94;95.60
20015;BME280;61787;42.022;23.078;2022-12-29T01:23:09;97726.41;;;6.89;95.65
20015;BME280;61787;42.022;23.078;2022-12-29T01:24:10;97728.56;;;6.87;95.88
20015;BME280;61787;42.022;23.078;2022-12-29T01:25:12;97727.31;;;6.79;96.22
20015;BME280;61787;42.022;23.078;2022-12-29T01:26:16;97726.59;;;6.73;96.72
20015;BME280;61787;42.022;23.078;2022-12-29T01:27:18;97717.84;;;6.68;97.02
20015;BME280;61787;42.022;23.078;2022-12-29T01:28:20;97722.22;;;6.59;97.33
20015;BME280;61787;42.022;23.078;2022-12-29T01:29:26;97727.34;;;6.55;97.61
20015;BME280;61787;42.022;23.078;2022-12-29T01:30:28;97722.63;;;6.47;98.12
20015;BME280;61787;42.022;23.078;2022-12-29T01:31:29;97714.94;;;6.46;98.47
20015;BME280;61787;42.022;23.078;2022-12-29T01:32:31;97721.34;;;6.45;98.87
20015;BME280;61787;42.022;23.078;2022-12-29T01:33:33;97721.34;;;6.45;98.84
20015;BME280;61787;42.022;23.078;2022-12-29T01:34:34;97712.75;;;6.48;98.52
20015;BME280;61787;42.022;23.078;2022-12-29T01:35:36;97716.00;;;6.45;98.84
20015;BME280;61787;42.022;23.078;2022-12-29T01:36:37;97713.63;;;6.43;98.25
20015;BME280;61787;42.022;23.078;2022-12-29T01:37:39;97708.06;;;6.39;98.48
20015;BME280;61787;42.022;23.078;2022-12-29T01:38:41;97708.06;;;6.39;99.18
20015;BME280;61787;42.022;23.078;2022-12-29T01:39:43;97704.88;;;6.37;98.89
20015;BME280;61787;42.022;23.078;2022-12-29T01:40:45;97703.53;;;6.40;98.85
20015;BME280;61787;42.022;23.078;2022-12-29T01:41:47;97710.69;;;6.45;99.00
20015;BME280;61787;42.022;23.078;2022-12-29T01:42:49;97712.28;;;6.46;98.32
20015;BME280;61787;42.022;23.078;2022-12-29T01:43:55;97710.09;;;6.48;98.47
20015;BME280;61787;42.022;23.078;2022-12-29T01:45:00;97715.38;;;6.53;98.43
20015;BME280;61787;42.022;23.078;2022-12-29T01:46:02;97710.03;;;6.53;97.59
20015;BME280;61787;42.022;23.078;2022-12-29T01:47:04;97718.16;;;6.42;98.21
20015;BME280;61787;42.022;23.078;2022-12-29T01:48:08;97722.31;;;6.30;99.17
20015;BME280;61787;42.022;23.078;2022-12-29T01:49:15;97709.78;;;6.30;99.14
20015;BME280;61787;42.022;23.078;2022-12-29T01:50:32;97712.94;;;6.32;99.98
20015;BME280;61787;42.022;23.078;2022-12-29T01:51:38;97710.78;;;6.34;99.74
20015;BME280;61787;42.022;23.078;2022-12-29T01:52:43;97713.91;;;6.41;99.14
20015;BME280;61787;42.022;23.078;2022-12-29T01:53:48;97717.03;;;6.49;99.52
20015;BME280;61787;42.022;23.078;2022-12-29T01:54:52;97720.47;;;6.49;99.28
20015;BME280;61787;42.022;23.078;2022-12-29T01:55:59;97718.03;;;6.53;98.76
20015;BME280;61787;42.022;23.078;2022-12-29T01:57:07;97712.94;;;6.56;98.66
20015;BME280;61787;42.022;23.078;2022-12-29T01:58:10;97714.81;;;6.56;98.32
20015;BME280;61787;42.022;23.078;2022-12-29T01:59:18;97715.44;;;6.48;98.74
20015;BME280;61787;42.022;23.078;2022-12-29T02:00:22;97718.22;;;6.37;99.33
20015;BME280;61787;42.022;23.078;2022-12-29T02:01:24;97708.06;;;6.39;100.00
20015;BME280;61787;42.022;23.078;2022-12-29T02:02:26;97713.06;;;6.46;99.58
20015;BME280;61787;42.022;23.078;2022-12-29T02:03:34;97713.63;;;6.43;100.00
20015;BME280;61787;42.022;23.078;2022-12-29T02:04:40;97714.75;;;6.37;100.00
20015;BME280;61787;42.022;23.078;2022-12-29T02:05:59;97710.75;;;6.39;100.00
20015;BME280;61787;42.022;23.078;2022-12-29T02:07:07;97708.06;;;6.39;100.00
20015;BME280;61787;42.022;23.078;2022-12-29T02:08:11;97705.97;;;6.36;100.00
20015;BME280;61787;42.022;23.078;2022-12-29T02:09:13;97709.19;;;6.33;100.00
20015;BME280;61787;42.022;23.078;2022-12-29T02:10:15;97707.66;;;6.27;100.00
20015;BME280;61787;42.022;23.078;2022-12-29T02:11:18;97708.25;;;6.24;100.00
20015;BME280;61787;42.022;23.078;2022-12-29T02:12:22;97699.78;;;6.17;100.00
20015;BME280;61787;42.022;23.078;2022-12-29T02:13:25;97703.56;;;6.11;100.00
20015;BME280;61787;42.022;23.078;2022-12-29T02:14:26;97702.16;;;6.19;100.00
20015;BME280;61787;42.022;23.078;2022-12-29T02:17:13;97705.56;;;6.24;100.00
20015;BME280;61787;42.022;23.078;2022-12-29T02:24:26;97705.84;;;6.23;100.00
20015;BME280;61787;42.022;23.078;2022-12-29T02:32:03;97702.06;;;6.53;100.00
20015;BME280;61787;42.022;23.078;2022-12-29T02:33:40;97701.94;;;6.63;100.00
20015;BME280;61787;42.022;23.078;2022-12-29T02:36:32;97695.91;;;6.76;99.34
20015;BME280;61787;42.022;23.078;2022-12-29T02:37:42;97698.94;;;6.88;98.19
20015;BME280;61787;42.022;23.078;2022-12-29T02:39:09;97693.25;;;6.95;97.17
20015;BME280;61787;42.022;23.078;2022-12-29T02:40:47;97689.25;;;6.97;96.72
20015;BME280;61787;42.022;23.078;2022-12-29T02:44:37;97694.28;;;6.99;96.55
20015;BME280;61787;42.022;23.078;2022-12-29T02:46:00;97687.13;;;6.94;96.72
20015;BME280;61787;42.022;23.078;2022-12-29T02:47:06;97695.06;;;6.99;96.43
20015;BME280;61787;42.022;23.078;2022-12-29T02:49:24;97689.31;;;6.92;97.12
20015;BME280;61787;42.022;23.078;2022-12-29T02:50:41;97696.66;;;6.81;97.15
20015;BME280;61787;42.022;23.078;2022-12-29T02:52:54;97693.53;;;6.74;98.51
20015;BME280;61787;42.022;23.078;2022-12-29T02:53:58;97698.13;;;6.69;98.33
20015;BME280;61787;42.022;23.078;2022-12-29T02:55:19;97695.97;;;6.71;98.92
20015;BME280;61787;42.022;23.078;2022-12-29T02:56:21;97702.03;;;6.76;98.60
20015;BME280;61787;42.022;23.078;2022-12-29T02:58:24;97695.41;;;6.93;97.89
20015;BME280;61787;42.022;23.078;2022-12-29T02:59:26;97693.47;;;6.98;97.29
20015;BME280;61787;42.022;23.078;2022-12-29T03:00:28;97690.75;;;7.03;96.60
20015;BME280;61787;42.022;23.078;2022-12-29T03:10:18;97692.66;;;6.60;97.22
20015;BME280;61787;42.022;23.078;2022-12-29T03:11:27;97701.03;;;6.49;97.60
20015;BME280;61787;42.022;23.078;2022-12-29T03:13:01;97690.50;;;6.38;99.36
20015;BME280;61787;42.022;23.078;2022-12-29T03:14:29;97686.75;;;6.39;99.20
20015;BME280;61787;42.022;23.078;2022-12-29T03:16:04;97690.34;;;6.30;100.00
20015;BME280;61787;42.022;23.078;2022-12-29T03:17:15;97684.81;;;6.21;100.00
20015;BME280;61787;42.022;23.078;2022-12-29T03:20:07;97681.09;;;6.22;100.00
20015;BME280;61787;42.022;23.078;2022-12-29T03:21:22;97684.94;;;6.11;100.00
20015;BME280;61787;42.022;23.078;2022-12-29T03:22:47;97683.84;;;6.12;100.00
20015;BME280;61787;42.022;23.078;2022-12-29T03:23:51;97688.13;;;6.13;100.00
20015;BME280;61787;42.022;23.078;2022-12-29T03:26:04;97688.81;;;6.24;100.00
20015;BME280;61787;42.022;23.078;2022-12-29T03:27:10;97683.69;;;6.27;100.00
20015;BME280;61787;42.022;23.078;2022-12-29T03:28:19;97692.19;;;6.29;100.00
20015;BME280;61787;42.022;23.078;2022-12-29T03:29:24;97688.47;;;6.30;100.00
20015;BME280;61787;42.022;23.078;2022-12-29T03:30:27;97685.50;;;6.32;100.00
20015;BME280;61787;42.022;23.078;2022-12-29T03:31:29;97684.72;;;6.31;100.00
20015;BME280;61787;42.022;23.078;2022-12-29T03:32:40;97690.03;;;6.31;99.91
20015;BME280;61787;42.022;23.078;2022-12-29T03:33:44;97679.38;;;6.31;99.87
20015;BME280;61787;42.022;23.078;2022-12-29T03:34:48;97690.81;;;6.32;100.00
20015;BME280;61787;42.022;23.078;2022-12-29T03:35:52;97692.75;;;6.26;100.00
20015;BME280;61787;42.022;23.078;2022-12-29T03:37:05;97698.06;;;6.26;100.00
20015;BME280;61787;42.022;23.078;2022-12-29T03:38:11;97696.72;;;6.29;100.00
20015;BME280;61787;42.022;23.078;2022-12-29T03:39:17;97696.53;;;6.25;100.00
20015;BME280;61787;42.022;23.078;2022-12-29T03:40:21;97689.59;;;6.24;100.00
20015;BME280;61787;42.022;23.078;2022-12-29T03:41:27;97692.75;;;6.26;100.00
20015;BME280;61787;42.022;23.078;2022-12-29T03:42:32;97692.19;;;6.29;100.00
20015;BME280;61787;42.022;23.078;2022-12-29T03:43:35;97692.75;;;6.26;100.00
20015;BME280;61787;42.022;23.078;2022-12-29T03:44:39;97691.19;;;6.25;100.00
20015;BME280;61787;42.022;23.078;2022-12-29T03:45:41;97693.34;;;6.23;100.00
20015;BME280;61787;42.022;23.078;2022-12-29T03:46:42;97700.00;;;6.21;100.00
20015;BME280;61787;42.022;23.078;2022-12-29T03:47:44;97693.91;;;6.20;100.00
20015;BME280;61787;42.022;23.078;2022-12-29T03:48:46;97694.69;;;6.21;100.00
20015;BME280;61787;42.022;23.078;2022-12-29T03:49:48;97702.91;;;6.24;100.00
20015;BME280;61787;42.022;23.078;2022-12-29T03:50:50;97706.19;;;6.16;100.00
20015;BME280;61787;42.022;23.078;2022-12-29T03:51:52;97706.22;;;6.11;100.00
20015;BME280;61787;42.022;23.078;2022-12-29T03:52:53;97710.53;;;6.07;100.00
20015;BME280;61787;42.022;23.078;2022-12-29T03:53:55;97703.34;;;6.08;100.00
20015;BME280;61787;42.022;23.078;2022-12-29T03:54:57;97705.22;;;6.07;100.00
20015;BME280;61787;42.022;23.078;2022-12-29T03:55:58;97702.06;;;6.05;100.00
20015;BME280;61787;42.022;23.078;2022-12-29T03:57:00;97702.06;;;6.05;100.00
20015;BME280;61787;42.022;23.078;2022-12-29T03:58:01;97709.19;;;6.10;100.00
20015;BME280;61787;42.022;23.078;2022-12-29T03:59:03;97704.66;;;6.10;100.00
20015;BME280;61787;42.022;23.078;2022-12-29T04:00:06;97708.50;;;5.99;100.00
20015;BME280;61787;42.022;23.078;2022-12-29T04:01:07;97701.41;;;5.84;100.00
20015;BME280;61787;42.022;23.078;2022-12-29T04:02:09;97701.22;;;5.76;100.00
20015;BME280;61787;42.022;23.078;2022-12-29T04:03:11;97707.38;;;5.71;100.00
20015;BME280;61787;42.022;23.078;2022-12-29T04:04:12;97708.75;;;5.69;100.00
20015;BME280;61787;42.022;23.078;2022-12-29T04:05:14;97706.66;;;5.61;100.00
20015;BME280;61787;42.022;23.078;2022-12-29T04:06:16;97709.94;;;5.52;100.00
20015;BME280;61787;42.022;23.078;2022-12-29T04:07:18;97707.31;;;5.47;100.00
20015;BME280;61787;42.022;23.078;2022-12-29T04:08:19;97706.78;;;5.45;100.00
20015;BME280;61787;42.022;23.078;2022-12-29T04:09:21;97706.78;;;5.45;100.00
20015;BME280;61787;42.022;23.078;2022-12-29T04:10:22;97706.78;;;5.45;100.00
20015;BME280;61787;42.022;23.078;2022-12-29T04:11:24;97707.00;;;5.49;100.00
20015;BME280;61787;42.022;23.078;2022-12-29T04:12:33;97714.72;;;5.50;100.00
20015;BME280;61787;42.022;23.078;2022-12-29T04:13:34;97711.56;;;5.48;100.00
20015;BME280;61787;42.022;23.078;2022-12-29T04:14:36;97708.91;;;5.48;100.00
20015;BME280;61787;42.022;23.078;2022-12-29T04:15:38;97706.25;;;5.48;100.00
20015;BME280;61787;42.022;23.078;2022-12-29T04:16:39;97711.53;;;5.53;100.00
20015;BME280;61787;42.022;23.078;2022-12-29T04:17:41;97715.75;;;5.54;100.00
20015;BME280;61787;42.022;23.078;2022-12-29T04:18:43;97705.09;;;5.54;100.00
20015;BME280;61787;42.022;23.078;2022-12-29T04:19:44;97710.44;;;5.54;100.00
20015;BME280;61787;42.022;23.078;2022-12-29T04:20:46;97711.78;;;5.52;100.00
20015;BME280;61787;42.022;23.078;2022-12-29T04:22:04;97711.75;;;5.57;100.00
20015;BME280;61787;42.022;23.078;2022-12-29T04:23:06;97720.00;;;5.55;100.00
20015;BME280;61787;42.022;23.078;2022-12-29T04:24:08;97716.28;;;5.56;100.00
20015;BME280;61787;42.022;23.078;2022-12-29T04:25:09;97711.19;;;5.60;100.00
20015;BME280;61787;42.022;23.078;2022-12-29T04:26:11;97715.44;;;5.61;100.00
20015;BME280;61787;42.022;23.078;2022-12-29T04:27:13;97711.44;;;5.64;100.00
20015;BME280;61787;42.022;23.078;2022-12-29T04:28:15;97715.16;;;5.63;100.00
20015;BME280;61787;42.022;23.078;2022-12-29T04:29:19;97714.09;;;5.64;100.00
20015;BME280;61787;42.022;23.078;2022-12-29T04:30:20;97717.81;;;5.63;100.00
20015;BME280;61787;42.022;23.078;2022-12-29T04:31:22;97716.81;;;5.58;100.00
20015;BME280;61787;42.022;23.078;2022-12-29T04:32:24;97711.97;;;5.61;100.00
20015;BME280;61787;42.022;23.078;2022-12-29T04:33:25;97717.06;;;5.57;100.00
20015;BME280;61787;42.022;23.078;2022-12-29T04:34:27;97716.28;;;5.56;100.00
20015;BME280;61787;42.022;23.078;2022-12-29T04:35:28;97713.63;;;5.56;100.00
20015;BME280;61787;42.022;23.078;2022-12-29T04:36:30;97721.03;;;5.59;100.00
20015;BME280;61787;42.022;23.078;2022-12-29T04:37:31;97722.63;;;5.61;100.00
20015;BME280;61787;42.022;23.078;2022-12-29T04:38:34;97720.25;;;5.59;100.00
20015;BME280;61787;42.022;23.078;2022-12-29T04:39:36;97719.97;;;5.61;100.00
20015;BME280;61787;42.022;23.078;2022-12-29T04:40:39;97717.78;;;5.68;100.00
20015;BME280;61787;42.022;23.078;2022-12-29T04:41:41;97723.03;;;5.78;100.00
20015;BME280;61787;42.022;23.078;2022-12-29T04:42:42;97714.44;;;5.86;100.00
20015;BME280;61787;42.022;23.078;2022-12-29T04:43:44;97718.41;;;5.93;100.00
20015;BME280;61787;42.022;23.078;2022-12-29T04:44:45;97715.41;;;6.00;100.00
20015;BME280;61787;42.022;23.078;2022-12-29T04:45:47;97723.06;;;6.07;100.00
20015;BME280;61787;42.022;23.078;2022-12-29T04:46:49;97725.38;;;6.13;100.00
20015;BME280;61787;42.022;23.078;2022-12-29T04:47:50;97725.88;;;6.20;100.00
20015;BME280;61787;42.022;23.078;2022-12-29T04:48:52;97724.22;;;6.24;100.00
20015;BME280;61787;42.022;23.078;2022-12-29T04:49:53;97727.09;;;6.28;100.00
20015;BME280;61787;42.022;23.078;2022-12-29T04:50:55;97723.09;;;6.30;100.00
20015;BME280;61787;42.022;23.078;2022-12-29T04:51:57;97727.06;;;6.33;100.00
20015;BME280;61787;42.022;23.078;2022-12-29T04:52:58;97733.41;;;6.37;100.00
20015;BME280;61787;42.022;23.078;2022-12-29T04:54:00;97728.81;;;6.42;100.00
20015;BME280;61787;42.022;23.078;2022-12-29T04:55:01;97732.22;;;6.48;100.00
20015;BME280;61787;42.022;23.078;2022-12-29T04:56:03;97728.41;;;6.54;100.00
20015;BME280;61787;42.022;23.078;2022-12-29T04:57:05;97734.50;;;6.60;100.00
20015;BME280;61787;42.022;23.078;2022-12-29T04:58:07;97728.56;;;6.63;100.00
20015;BME280;61787;42.022;23.078;2022-12-29T04:59:08;97725.84;;;6.68;100.00
20015;BME280;61787;42.022;23.078;2022-12-29T05:00:10;97733.00;;;6.72;99.94
20015;BME280;61787;42.022;23.078;2022-12-29T05:01:12;97733.22;;;6.76;99.58
20015;BME280;61787;42.022;23.078;2022-12-29T05:02:15;97730.56;;;6.76;98.84
20015;BME280;61787;42.022;23.078;2022-12-29T05:03:18;97728.47;;;6.73;98.30
20015;BME280;61787;42.022;23.078;2022-12-29T05:04:20;97742.31;;;6.75;98.37
20015;BME280;61787;42.022;23.078;2022-12-29T05:05:22;97734.25;;;6.80;98.45
20015;BME280;61787;42.022;23.078;2022-12-29T05:06:23;97733.66;;;6.83;97.82
20015;BME280;61787;42.022;23.078;2022-12-29T05:07:25;97731.25;;;6.87;97.92
20015;BME280;61787;42.022;23.078;2022-12-29T05:08:27;97738.38;;;6.91;97.02
20015;BME280;61787;42.022;23.078;2022-12-29T05:09:29;97729.00;;;6.94;96.73
20015;BME280;61787;42.022;23.078;2022-12-29T05:10:31;97729.25;;;6.97;96.70
20015;BME280;61787;42.022;23.078;2022-12-29T05:11:32;97731.31;;;7.00;96.64
20015;BME280;61787;42.022;23.078;2022-12-29T05:12:36;97733.41;;;7.03;95.89
20015;BME280;61787;42.022;23.078;2022-12-29T05:13:38;97737.59;;;7.09;96.03
20015;BME280;61787;42.022;23.078;2022-12-29T05:14:40;97740.78;;;7.11;95.73
20015;BME280;61787;42.022;23.078;2022-12-29T05:15:54;97743.94;;;7.13;95.14
20015;BME280;61787;42.022;23.078;2022-12-29T05:18:54;97744.59;;;7.24;93.24
20015;BME280;61787;42.022;23.078;2022-12-29T05:19:56;97747.06;;;7.20;92.95
20015;BME280;61787;42.022;23.078;2022-12-29T05:20:58;97743.38;;;7.16;92.86
20015;BME280;61787;42.022;23.078;2022-12-29T05:22:00;97740.19;;;7.14;93.05
20015;BME280;61787;42.022;23.078;2022-12-29T05:23:01;97741.84;;;7.10;93.41
20015;BME280;61787;42.022;23.078;2022-12-29T05:24:03;97739.19;;;7.10;93.82
20015;BME280;61787;42.022;23.078;2022-12-29T05:25:05;97748.25;;;7.09;93.70
20015;BME280;61787;42.022;23.078;2022-12-29T05:26:07;97749.34;;;7.08;93.95
20015;BME280;61787;42.022;23.078;2022-12-29T05:27:08;97746.91;;;7.12;93.49
20015;BME280;61787;42.022;23.078;2022-12-29T05:28:10;97752.25;;;7.12;93.36
20015;BME280;61787;42.022;23.078;2022-12-29T05:29:12;97744.66;;;7.00;93.82
20015;BME280;61787;42.022;23.078;2022-12-29T05:30:13;97747.50;;;6.85;94.36
20015;BME280;61787;42.022;23.078;2022-12-29T05:31:15;97746.84;;;6.74;95.32
20015;BME280;61787;42.022;23.078;2022-12-29T05:32:17;97751.50;;;6.64;96.53
20015;BME280;61787;42.022;23.078;2022-12-29T05:33:19;97748.88;;;6.59;96.44
20015;BME280;61787;42.022;23.078;2022-12-29T05:34:21;97756.94;;;6.54;96.41
20015;BME280;61787;42.022;23.078;2022-12-29T05:35:22;97757.00;;;6.49;97.08
20015;BME280;61787;42.022;23.078;2022-12-29T05:36:24;97752.72;;;6.48;97.27
20015;BME280;61787;42.022;23.078;2022-12-29T05:37:25;97745.59;;;6.43;97.92
20015;BME280;61787;42.022;23.078;2022-12-29T05:38:27;97745.91;;;6.36;98.05
20015;BME280;61787;42.022;23.078;2022-12-29T05:39:29;97751.03;;;6.33;98.01
20015;BME280;61787;42.022;23.078;2022-12-29T05:40:30;97751.81;;;6.33;98.43
20015;BME280;61787;42.022;23.078;2022-12-29T05:41:33;97743.81;;;6.33;98.30
20015;BME280;61787;42.022;23.078;2022-12-29T05:42:35;97745.41;;;6.34;98.32
20015;BME280;61787;42.022;23.078;2022-12-29T05:43:37;97745.91;;;6.36;98.73
20015;BME280;61787;42.022;23.078;2022-12-29T05:44:38;97743.56;;;6.35;98.71
20015;BME280;61787;42.022;23.078;2022-12-29T05:45:40;97748.09;;;6.34;99.16
20015;BME280;61787;42.022;23.078;2022-12-29T05:46:41;97752.41;;;6.30;98.73
20015;BME280;61787;42.022;23.078;2022-12-29T05:47:43;97746.28;;;6.30;98.95
20015;BME280;61787;42.022;23.078;2022-12-29T05:48:44;97752.41;;;6.30;99.51
20015;BME280;61787;42.022;23.078;2022-12-29T05:49:46;97750.00;;;6.29;99.47
20015;BME280;61787;42.022;23.078;2022-12-29T05:50:49;97745.22;;;6.26;100.00
20015;BME280;61787;42.022;23.078;2022-12-29T05:53:45;97749.78;;;6.25;99.88
20015;BME280;61787;42.022;23.078;2022-12-29T05:54:47;97752.94;;;6.27;99.94
20015;BME280;61787;42.022;23.078;2022-12-29T05:55:49;97758.78;;;6.29;100.00
20015;BME280;61787;42.022;23.078;2022-12-29T05:56:50;97758.75;;;6.34;99.82
20015;BME280;61787;42.022;23.078;2022-12-29T05:57:52;97756.03;;;6.39;99.43
20015;BME280;61787;42.022;23.078;2022-12-29T05:58:54;97755.44;;;6.42;99.19
20015;BME280;61787;42.022;23.078;2022-12-29T05:59:55;97756.34;;;6.33;99.47
20015;BME280;61787;42.022;23.078;2022-12-29T06:00:57;97755.56;;;6.32;99.59
20015;BME280;61787;42.022;23.078;2022-12-29T06:01:58;97762.47;;;6.33;99.56
20015;BME280;61787;42.022;23.078;2022-12-29T06:03:00;97758.16;;;6.37;99.62
20015;BME280;61787;42.022;23.078;2022-12-29T06:04:03;97762.16;;;6.40;99.52
20015;BME280;61787;42.022;23.078;2022-12-29T06:05:05;97762.09;;;6.45;99.08
20015;BME280;61787;42.022;23.078;2022-12-29T06:06:06;97758.63;;;6.45;99.03
20015;BME280;61787;42.022;23.078;2022-12-29T06:07:08;97763.97;;;6.45;99.15
20015;BME280;61787;42.022;23.078;2022-12-29T06:08:09;97757.25;;;6.47;99.31
20015;BME280;61787;42.022;23.078;2022-12-29T06:09:11;97759.66;;;6.49;99.06
20015;BME280;61787;42.022;23.078;2022-12-29T06:10:13;97768.16;;;6.51;99.01
20015;BME280;61787;42.022;23.078;2022-12-29T06:11:14;97762.53;;;6.52;98.57
20015;BME280;61787;42.022;23.078;2022-12-29T06:12:16;97772.91;;;6.54;98.17
20015;BME280;61787;42.022;23.078;2022-12-29T06:13:18;97767.59;;;6.54;98.60
20015;BME280;61787;42.022;23.078;2022-12-29T06:14:19;97770.78;;;6.56;98.22
20015;BME280;61787;42.022;23.078;2022-12-29T06:15:21;97772.34;;;6.57;97.95
20015;BME280;61787;42.022;23.078;2022-12-29T06:16:23;97776.09;;;6.56;97.52
20015;BME280;61787;42.022;23.078;2022-12-29T06:17:25;97775.31;;;6.55;98.14
20015;BME280;61787;42.022;23.078;2022-12-29T06:18:26;97771.78;;;6.60;97.93
20015;BME280;61787;42.022;23.078;2022-12-29T06:19:28;97772.81;;;6.64;97.66